Time;durP1;ratioP1;P1;durP2;ratioP2;P2;SDS_P1;SDS_P2;PMS_P1;PMS_P2;Temp;Humidity;BMP_temperature;BMP_pressure;BME280_temperature;BME280_humidity;BME280_pressure;Samples;Min_cycle;Max_cycle;Signal;HPM_P1;HPM_P2
2022/08/07 00:01:48;;;;;;;3.23;1.70;;;;;18.60;99446.00;;;;16637743;28;20296;-75
2022/08/07 00:09:51;;;;;;;1.83;1.47;;;;;18.40;99447.00;;;;16641638;28;20206;-76
2022/08/07 00:17:54;;;;;;;2.10;1.43;;;;;19.00;99435.00;;;;16640110;28;20315;-75
2022/08/07 00:25:57;;;;;;;1.70;1.60;;;;;19.60;99434.00;;;;16629544;28;20249;-76
2022/08/07 00:34:01;;;;;;;2.87;2.00;;;;;18.60;99442.00;;;;16644564;28;20865;-75
2022/08/07 00:42:03;;;;;;;1.90;1.80;;;;;18.70;99451.00;;;;16640803;28;20308;-75
2022/08/07 00:50:08;;;;;;;1.93;1.50;;;;;19.00;99449.00;;;;16626409;28;20221;-75
2022/08/07 00:58:11;;;;;;;2.00;1.80;;;;;18.80;99452.00;;;;16625264;28;20218;-75
2022/08/07 01:06:15;;;;;;;4.50;2.07;;;;;18.50;99438.00;;;;16638471;28;20229;-75
2022/08/07 01:14:18;;;;;;;1.80;1.70;;;;;18.50;99440.00;;;;16641059;28;20308;-77
2022/08/07 01:22:22;;;;;;;2.40;1.60;;;;;17.90;99445.00;;;;16621891;28;20222;-74
2022/08/07 01:30:27;;;;;;;1.83;1.50;;;;;17.80;99429.00;;;;16631345;28;20233;-74
2022/08/07 01:38:32;;;;;;;3.20;1.87;;;;;18.60;99430.00;;;;16615212;28;20291;-73
2022/08/07 01:46:42;;;;;;;3.47;2.03;;;;;17.40;99427.00;;;;16623358;28;20233;-75
2022/08/07 01:54:47;;;;;;;3.43;1.73;;;;;18.00;99437.00;;;;16630803;28;20646;-75
2022/08/07 02:02:55;;;;;;;2.10;1.70;;;;;17.70;99429.00;;;;16630438;28;20229;-75
2022/08/07 02:11:01;;;;;;;2.13;1.40;;;;;18.10;99422.00;;;;16623270;28;20232;-75
2022/08/07 02:19:08;;;;;;;3.00;1.90;;;;;17.40;99415.00;;;;16625236;28;20276;-75
2022/08/07 02:27:13;;;;;;;1.47;1.37;;;;;17.60;99402.00;;;;16609093;28;20228;-75
2022/08/07 02:35:21;;;;;;;2.20;2.00;;;;;17.30;99403.00;;;;16626472;28;20229;-75
2022/08/07 02:43:29;;;;;;;2.13;1.80;;;;;17.90;99398.00;;;;16629737;28;20729;-76
2022/08/07 02:51:33;;;;;;;1.93;1.73;;;;;16.80;99409.00;;;;16626459;28;20487;-76
2022/08/07 02:59:39;;;;;;;3.57;2.00;;;;;17.80;99405.00;;;;16636815;28;20237;-75
2022/08/07 03:07:43;;;;;;;2.43;1.90;;;;;17.40;99406.00;;;;16637718;28;20251;-76
2022/08/07 03:15:49;;;;;;;2.90;1.87;;;;;17.90;99393.00;;;;16636096;28;20294;-76
2022/08/07 03:23:52;;;;;;;1.80;1.70;;;;;18.60;99405.00;;;;16640441;28;20280;-75
2022/08/07 03:31:57;;;;;;;1.87;1.77;;;;;18.00;99405.00;;;;16635260;28;20226;-75
2022/08/07 03:40:00;;;;;;;2.00;1.90;;;;;16.80;99415.00;;;;16621171;28;20200;-75
2022/08/07 03:48:04;;;;;;;2.40;2.20;;;;;16.90;99407.00;;;;16621877;28;20220;-76
2022/08/07 03:56:08;;;;;;;2.60;2.20;;;;;16.70;99397.00;;;;16656759;28;20229;-76
2022/08/07 04:04:16;;;;;;;4.40;2.13;;;;;17.00;99403.00;;;;16627964;28;20237;-76
2022/08/07 04:12:19;;;;;;;3.00;1.93;;;;;16.80;99402.00;;;;16612701;28;20217;-76
2022/08/07 04:20:24;;;;;;;6.77;2.57;;;;;16.60;99416.00;;;;16651165;28;20228;-77
2022/08/07 04:28:26;;;;;;;2.03;1.83;;;;;17.60;99416.00;;;;16620849;28;20291;-76
2022/08/07 04:36:33;;;;;;;4.30;2.30;;;;;17.20;99433.00;;;;16635860;28;20225;-76
2022/08/07 04:44:36;;;;;;;2.90;2.17;;;;;17.30;99427.00;;;;16634066;28;20587;-76
2022/08/07 04:52:45;;;;;;;3.60;1.90;;;;;17.50;99434.00;;;;16647028;28;20237;-76
2022/08/07 05:00:51;;;;;;;3.20;2.23;;;;;18.10;99426.00;;;;16631379;28;20229;-77
2022/08/07 05:09:01;;;;;;;2.30;2.10;;;;;18.10;99430.00;;;;16618992;28;20222;-76
2022/08/07 05:17:07;;;;;;;3.17;2.23;;;;;17.80;99432.00;;;;16621010;28;20225;-76
2022/08/07 05:25:12;;;;;;;2.23;2.13;;;;;19.70;99426.00;;;;16648670;28;20302;-76
2022/08/07 05:33:15;;;;;;;2.47;2.27;;;;;18.60;99441.00;;;;16611044;28;20770;-76
2022/08/07 05:41:19;;;;;;;2.03;1.93;;;;;19.30;99438.00;;;;16636905;28;20311;-77
2022/08/07 05:49:25;;;;;;;1.80;1.70;;;;;19.60;99440.00;;;;16611616;28;20308;-76
2022/08/07 05:57:30;;;;;;;4.60;2.83;;;;;20.70;99444.00;;;;16646303;28;20313;-75
2022/08/07 06:05:34;;;;;;;3.50;2.63;;;;;21.70;99441.00;;;;16626210;28;20325;-76
2022/08/07 06:13:45;;;;;;;3.47;2.30;;;;;22.30;99440.00;;;;16611444;28;20215;-73
2022/08/07 06:21:49;;;;;;;3.93;2.57;;;;;24.30;99425.00;;;;16617954;28;20275;-73
2022/08/07 06:29:53;;;;;;;3.20;2.90;;;;;24.40;99430.00;;;;16639316;28;20239;-72
2022/08/07 06:37:57;;;;;;;3.90;3.60;;;;;23.60;99425.00;;;;16615796;28;20210;-74
2022/08/07 06:46:01;;;;;;;4.23;3.70;;;;;23.00;99430.00;;;;16603160;28;20345;-73
2022/08/07 06:54:05;;;;;;;4.13;3.57;;;;;23.40;99418.00;;;;16627441;28;20223;-74
2022/08/07 07:02:19;;;;;;;3.87;3.60;;;;;25.00;99416.00;;;;16626604;28;20272;-75
2022/08/07 07:10:29;;;;;;;4.40;4.07;;;;;25.90;99409.00;;;;16634841;28;20274;-76
2022/08/07 07:18:39;;;;;;;5.40;3.57;;;;;25.00;99417.00;;;;16615106;28;20286;-75
2022/08/07 07:26:44;;;;;;;4.37;3.47;;;;;25.80;99422.00;;;;16630223;28;20284;-75
2022/08/07 07:34:51;;;;;;;3.23;2.93;;;;;26.40;99407.00;;;;16624918;28;20221;-75
2022/08/07 07:42:55;;;;;;;2.90;2.60;;;;;26.70;99403.00;;;;16631157;28;20233;-73
2022/08/07 07:50:59;;;;;;;7.00;2.30;;;;;25.60;99405.00;;;;16610407;28;20265;-72
2022/08/07 07:59:04;;;;;;;4.53;2.03;;;;;26.80;99395.00;;;;16628484;28;20219;-72
2022/08/07 08:07:09;;;;;;;4.63;1.83;;;;;26.50;99396.00;;;;16624946;28;20218;-74
2022/08/07 08:15:12;;;;;;;1.57;1.47;;;;;26.20;99393.00;;;;16610188;28;20310;-73
2022/08/07 08:31:39;;;;;;;5.03;2.07;;;;;27.10;99392.00;;;;16619460;28;20279;-73
2022/08/07 08:39:44;;;;;;;3.97;2.07;;;;;27.40;99384.00;;;;16598662;28;21087;-73
2022/08/07 08:47:55;;;;;;;2.30;2.10;;;;;27.40;99383.00;;;;16633477;28;20246;-73
2022/08/07 08:56:02;;;;;;;3.13;1.63;;;;;26.80;99388.00;;;;16649264;28;20323;-73
2022/08/07 09:04:11;;;;;;;1.30;1.20;;;;;26.30;99383.00;;;;16633426;28;20264;-73
2022/08/07 09:12:27;;;;;;;1.20;1.10;;;;;27.00;99380.00;;;;16641684;28;20246;-76
2022/08/07 09:20:32;;;;;;;2.10;1.47;;;;;27.40;99378.00;;;;16633886;28;20269;-74
2022/08/07 09:28:43;;;;;;;2.63;1.50;;;;;27.30;99379.00;;;;16627602;28;20262;-75
2022/08/07 09:36:52;;;;;;;1.53;1.40;;;;;27.50;99378.00;;;;16626590;28;20214;-74
2022/08/07 09:45:03;;;;;;;4.53;1.27;;;;;27.20;99370.00;;;;16616820;28;20498;-75
2022/08/07 09:53:09;;;;;;;1.40;1.30;;;;;27.60;99362.00;;;;16680406;22;20790;-74
2022/08/07 10:01:23;;;;;;;3.77;1.50;;;;;28.10;99350.00;;;;16869268;28;20244;-82
2022/08/07 10:10:01;;;;;;;4.50;1.27;;;;;29.40;99346.00;;;;16844139;28;20299;-78
2022/08/07 10:18:28;;;;;;;2.03;1.10;;;;;29.40;99342.00;;;;16634830;28;20265;-75
2022/08/07 10:26:43;;;;;;;3.53;1.17;;;;;30.30;99331.00;;;;16623282;28;20246;-75
2022/08/07 10:35:05;;;;;;;1.27;1.00;;;;;28.50;99317.00;;;;16656461;28;20305;-78
2022/08/07 10:43:25;;;;;;;1.47;1.00;;;;;29.60;99312.00;;;;16667412;28;20220;-74
2022/08/07 10:51:41;;;;;;;1.20;1.10;;;;;28.90;99298.00;;;;16850889;28;20235;-75
2022/08/07 11:00:12;;;;;;;1.67;1.03;;;;;29.50;99296.00;;;;16878930;28;20223;-74
2022/08/07 11:08:26;;;;;;;1.80;0.90;;;;;31.40;99297.00;;;;16869389;28;20228;-75
2022/08/07 11:16:37;;;;;;;4.20;1.57;;;;;29.00;99273.00;;;;16896854;28;20200;-76
2022/08/07 11:24:53;;;;;;;4.30;1.00;;;;;30.40;99268.00;;;;16879606;28;20227;-76
2022/08/07 11:33:01;;;;;;;2.03;1.10;;;;;32.20;99251.00;;;;16925864;28;20197;-76
2022/08/07 11:41:13;;;;;;;4.57;1.07;;;;;32.10;99259.00;;;;16898596;28;20224;-77
2022/08/07 11:49:25;;;;;;;1.20;1.10;;;;;32.00;99243.00;;;;16909774;28;20345;-77
2022/08/07 11:57:33;;;;;;;1.23;1.13;;;;;30.40;99244.00;;;;16924319;28;20229;-77
2022/08/07 12:05:43;;;;;;;1.30;1.00;;;;;32.80;99235.00;;;;16928886;28;20235;-77
2022/08/07 12:13:51;;;;;;;1.07;0.70;;;;;33.00;99238.00;;;;16925535;28;20204;-78
2022/08/07 12:21:59;;;;;;;1.30;0.90;;;;;32.10;99225.00;;;;16907316;28;20197;-78
2022/08/07 12:30:05;;;;;;;2.43;1.03;;;;;33.30;99215.00;;;;16798289;22;20233;-48
2022/08/07 12:38:08;;;;;;;1.00;0.90;;;;;32.90;99222.00;;;;16706769;28;20195;-48
2022/08/07 12:46:23;;;;;;;0.80;0.80;;;;;32.10;99207.00;;;;16690571;28;20221;-47
2022/08/07 12:54:29;;;;;;;1.03;0.80;;;;;34.70;99214.00;;;;16692218;28;20218;-48
2022/08/07 13:02:57;;;;;;;1.00;1.00;;;;;35.20;99213.00;;;;16702381;28;20231;-48
2022/08/07 13:11:08;;;;;;;1.10;1.00;;;;;34.90;99202.00;;;;16693802;28;20358;-48
2022/08/07 13:19:19;;;;;;;1.53;1.00;;;;;34.50;99201.00;;;;16699716;28;20218;-49
2022/08/07 13:27:26;;;;;;;6.13;1.37;;;;;35.00;99179.00;;;;16692881;28;20229;-46
2022/08/07 13:35:36;;;;;;;1.20;1.00;;;;;36.80;99182.00;;;;16699842;28;20817;-47
2022/08/07 13:43:42;;;;;;;1.20;1.10;;;;;35.70;99170.00;;;;16701797;28;20657;-46
2022/08/07 13:51:47;;;;;;;0.80;0.80;;;;;36.90;99171.00;;;;16686166;28;20221;-46
2022/08/07 13:59:54;;;;;;;0.97;0.97;;;;;36.60;99161.00;;;;16684839;28;20264;-47
2022/08/07 14:07:59;;;;;;;1.20;0.97;;;;;36.00;99150.00;;;;16686712;28;20221;-47
2022/08/07 14:16:04;;;;;;;1.77;1.13;;;;;34.90;99140.00;;;;16697616;28;20217;-48
2022/08/07 14:24:22;;;;;;;1.07;0.90;;;;;36.30;99127.00;;;;16696428;28;20273;-48
2022/08/07 14:32:25;;;;;;;0.80;0.80;;;;;37.10;99109.00;;;;16722473;28;20763;-48
2022/08/07 14:40:30;;;;;;;1.57;1.10;;;;;37.10;99118.00;;;;16701319;28;20272;-48
2022/08/07 14:48:34;;;;;;;1.53;1.10;;;;;37.40;99119.00;;;;16703354;28;20893;-48
2022/08/07 14:56:40;;;;;;;1.07;1.07;;;;;38.20;99118.00;;;;16705750;28;20207;-48
2022/08/07 15:04:44;;;;;;;1.00;1.00;;;;;36.00;99108.00;;;;16696542;28;20301;-48
2022/08/07 15:12:51;;;;;;;2.60;1.30;;;;;36.20;99107.00;;;;16703446;28;20225;-48
2022/08/07 15:20:53;;;;;;;1.60;1.03;;;;;36.30;99108.00;;;;16701892;28;20214;-48
2022/08/07 15:28:59;;;;;;;1.57;1.10;;;;;35.70;99097.00;;;;16712252;28;20296;-48
2022/08/07 15:37:04;;;;;;;1.43;1.17;;;;;38.10;99096.00;;;;16696151;28;20724;-48
2022/08/07 15:45:09;;;;;;;1.53;1.20;;;;;36.90;99091.00;;;;16705723;28;20375;-48
2022/08/07 15:53:14;;;;;;;1.20;1.10;;;;;36.70;99096.00;;;;16704854;28;20218;-48
2022/08/07 16:01:21;;;;;;;1.60;1.40;;;;;38.40;99077.00;;;;16695292;28;20276;-49
2022/08/07 16:17:40;;;;;;;1.43;1.33;;;;;37.40;99073.00;;;;16720174;28;20225;-49
2022/08/07 16:26:00;;;;;;;2.60;0.87;;;;;37.50;99067.00;;;;16716249;28;20226;-47
2022/08/07 16:34:07;;;;;;;1.30;1.20;;;;;37.00;99080.00;;;;16717260;28;20732;-49
2022/08/07 16:42:33;;;;;;;1.07;1.00;;;;;36.50;99073.00;;;;16719693;28;20222;-48
2022/08/07 16:51:00;;;;;;;2.70;1.33;;;;;37.40;99085.00;;;;16714733;28;20675;-48
2022/08/07 16:59:08;;;;;;;1.80;1.00;;;;;38.50;99079.00;;;;16715093;28;20197;-48
2022/08/07 17:07:18;;;;;;;1.50;1.00;;;;;37.50;99080.00;;;;16718056;28;20523;-50
2022/08/07 17:15:29;;;;;;;1.10;1.00;;;;;39.00;99085.00;;;;16716317;28;20344;-49
2022/08/07 17:23:42;;;;;;;1.37;1.27;;;;;36.90;99079.00;;;;16714711;28;20722;-48
2022/08/07 17:31:50;;;;;;;3.87;1.30;;;;;37.80;99091.00;;;;16717024;28;20312;-48
2022/08/07 17:39:58;;;;;;;1.77;1.00;;;;;37.20;99094.00;;;;16714902;28;20245;-49
2022/08/07 17:48:05;;;;;;;1.83;1.27;;;;;37.70;99095.00;;;;16710523;28;20617;-49
2022/08/07 17:56:11;;;;;;;2.00;1.50;;;;;36.70;99100.00;;;;16712237;28;20238;-48
2022/08/07 18:04:31;;;;;;;4.50;1.30;;;;;36.50;99102.00;;;;16704815;28;20477;-49
2022/08/07 18:12:42;;;;;;;1.67;1.13;;;;;35.50;99108.00;;;;16701789;28;20889;-48
2022/08/07 18:20:48;;;;;;;1.70;1.60;;;;;32.10;99108.00;;;;16707921;28;20213;-49
2022/08/07 18:29:03;;;;;;;1.67;1.17;;;;;31.40;99115.00;;;;16705543;28;20218;-48
2022/08/07 18:37:20;;;;;;;2.30;1.67;;;;;30.80;99129.00;;;;16706845;28;20705;-48
2022/08/07 18:45:31;;;;;;;2.13;1.30;;;;;30.90;99147.00;;;;16706027;28;20241;-48
2022/08/07 18:53:46;;;;;;;1.00;0.90;;;;;30.50;99152.00;;;;16705761;28;20293;-48
2022/08/07 19:01:59;;;;;;;2.87;1.47;;;;;30.50;99167.00;;;;16707968;28;20630;-48
2022/08/07 19:10:06;;;;;;;1.70;1.00;;;;;30.10;99170.00;;;;16705918;28;20883;-48
2022/08/07 19:18:17;;;;;;;3.07;1.57;;;;;27.20;99189.00;;;;16721583;28;20214;-48
2022/08/07 19:26:23;;;;;;;1.87;1.77;;;;;26.20;99192.00;;;;16719884;28;20233;-48
2022/08/07 19:34:29;;;;;;;1.40;1.10;;;;;24.80;99211.00;;;;16722069;28;20563;-48
2022/08/07 19:42:33;;;;;;;1.30;1.20;;;;;24.30;99213.00;;;;16721157;28;20209;-48
2022/08/07 19:50:39;;;;;;;1.90;1.40;;;;;23.80;99218.00;;;;16721391;28;20348;-48
2022/08/07 19:58:43;;;;;;;3.43;1.30;;;;;23.30;99228.00;;;;16719070;28;20194;-48
2022/08/07 20:06:46;;;;;;;1.73;1.63;;;;;22.80;99215.00;;;;16720669;28;20228;-50
2022/08/07 20:14:50;;;;;;;1.67;1.57;;;;;23.00;99211.00;;;;16716361;28;20576;-49
2022/08/07 20:22:58;;;;;;;3.67;1.73;;;;;22.40;99209.00;;;;16711371;28;20761;-49
2022/08/07 20:31:01;;;;;;;2.20;1.37;;;;;22.50;99204.00;;;;16711915;28;20221;-46
2022/08/07 20:39:05;;;;;;;2.03;1.30;;;;;22.50;99197.00;;;;16701355;28;20206;-47
2022/08/07 20:47:08;;;;;;;2.67;1.40;;;;;22.20;99200.00;;;;16704046;28;20257;-46
2022/08/07 20:55:12;;;;;;;1.80;1.50;;;;;22.10;99205.00;;;;16703475;28;20206;-46
2022/08/07 21:03:17;;;;;;;1.47;1.37;;;;;21.70;99204.00;;;;16710830;28;20218;-45
2022/08/07 21:11:21;;;;;;;1.93;1.63;;;;;21.60;99196.00;;;;16714037;28;20738;-46
2022/08/07 21:19:26;;;;;;;1.70;1.40;;;;;22.20;99193.00;;;;16715914;28;20566;-45
2022/08/07 21:27:37;;;;;;;3.47;1.63;;;;;21.80;99196.00;;;;16718039;28;20217;-45
2022/08/07 21:35:43;;;;;;;2.17;1.40;;;;;21.70;99193.00;;;;16714399;28;20214;-45
2022/08/07 21:43:53;;;;;;;2.23;1.60;;;;;21.70;99207.00;;;;16714442;28;20581;-45
2022/08/07 21:52:10;;;;;;;4.40;1.60;;;;;21.60;99213.00;;;;16714051;28;20717;-45
2022/08/07 22:00:16;;;;;;;1.30;1.20;;;;;21.80;99216.00;;;;16712177;28;20217;-45
2022/08/07 22:08:21;;;;;;;1.43;1.30;;;;;22.10;99222.00;;;;16712656;28;20225;-45
2022/08/07 22:16:32;;;;;;;1.83;1.43;;;;;21.00;99226.00;;;;16729856;22;20242;-47
2022/08/07 22:24:41;;;;;;;1.93;1.30;;;;;20.80;99232.00;;;;16716423;28;20367;-46
2022/08/07 22:32:59;;;;;;;4.87;1.53;;;;;21.00;99228.00;;;;16723783;28;20351;-46
2022/08/07 22:41:06;;;;;;;2.40;1.30;;;;;20.70;99235.00;;;;16735684;28;20296;-46
2022/08/07 22:49:23;;;;;;;1.47;1.37;;;;;19.90;99233.00;;;;16736043;28;20298;-46
2022/08/07 22:57:59;;;;;;;1.63;1.53;;;;;20.20;99229.00;;;;16736737;28;20578;-46
2022/08/07 23:06:27;;;;;;;1.60;1.50;;;;;19.60;99230.00;;;;16731455;28;20576;-46
2022/08/07 23:14:40;;;;;;;2.60;1.60;;;;;19.80;99227.00;;;;16726580;28;20597;-48
2022/08/07 23:23:04;;;;;;;3.57;1.57;;;;;19.40;99235.00;;;;16736447;28;20386;-46
2022/08/07 23:31:15;;;;;;;1.37;1.27;;;;;19.10;99247.00;;;;16737510;28;20230;-46
2022/08/07 23:39:25;;;;;;;1.53;1.43;;;;;19.30;99233.00;;;;16740074;28;20222;-46
2022/08/07 23:47:41;;;;;;;2.00;1.60;;;;;19.30;99224.00;;;;16731269;28;20233;-46
2022/08/07 23:55:54;;;;;;;1.93;1.43;;;;;19.30;99226.00;;;;16731799;28;20572;-47
